Latest Weather Observations for Lady Elliot Island

IDQ60801

Issued at 9:32 am EST Saturday 4 July 2015 (issued every 30 minutes, with the page automatically refreshed every 10 minutes)

About weather observations | Map of weather stations | Latest weather observations for QLD | Other Formats
Station Details ID: 039059 Name: LADY ELLIOT ISLAND Lat: -24.11 Lon: 152.72 Height: 3.6 m
Data from the previous 72 hours. | See also: Recent months at Lady Elliot Island
Date/Time
EST
Temp
°C
App
Temp
°C
Dew
Point
Rel
Hum
%
Delta-T
°C
Wind Press
QNH
hPa
Press
MSL
hPa
Rain
since 9 am
mm
Dir
 
Spd
km/h
Gust
km/h
Spd
kts
Gust
kts
04/09:30am 19.1 16.4 15.7 80 2.0 S 24 39 13 21 1021.6 - 0.0
04/09:00am 19.6 16.7 15.0 75 2.7 S 24 37 13 20 1021.7 1021.7 9.8
04/08:30am 19.4 16.3 14.4 73 2.9 SSE 24 39 13 21 1021.6 - 9.8
04/08:00am 19.2 16.4 15.3 78 2.3 S 24 37 13 20 1021.5 - 9.8
04/07:30am 18.9 15.6 15.1 78 2.2 SSE 26 33 14 18 1021.1 - 9.8
04/07:00am 18.9 16.3 14.8 77 2.4 SSE 22 35 12 19 1020.9 - 9.8
04/06:30am 18.6 14.8 14.8 78 2.2 SSE 28 41 15 22 1020.5 - 9.8
04/05:00am 18.3 16.5 15.9 86 1.4 S 20 30 11 16 1019.8 - 9.8
04/04:30am 17.6 15.6 15.4 87 1.3 SSE 20 30 11 16 1020.1 - 9.8
04/04:00am 17.6 15.5 15.2 86 1.4 SE 20 28 11 15 1020.0 - 9.4
04/03:34am 17.9 14.2 15.1 84 1.6 SE 28 50 15 27 1020.2 - 9.2
04/02:00am 17.7 15.0 15.7 88 1.2 S 24 33 13 18 1020.4 - 7.8
04/01:00am 17.3 15.0 15.6 90 1.0 SE 22 30 12 16 1020.7 - 7.4
04/12:00am 18.8 15.3 14.5 76 2.5 SSE 26 35 14 19 1020.9 1020.9 0.0
 
Date/Time
EST
Temp
°C
App
Temp
°C
Dew
Point
Rel
Hum
%
Delta-T
°C
Wind Press
QNH
hPa
Press
MSL
hPa
Rain
since 9 am
mm
Dir
 
Spd
km/h
Gust
km/h
Spd
kts
Gust
kts
03/11:30pm 19.0 15.8 14.3 74 2.7 S 24 35 13 19 1021.0 - 0.0
03/11:00pm 18.9 16.0 14.0 73 2.8 S 22 35 12 19 1021.1 - 0.0
03/10:30pm 19.0 15.6 13.7 71 3.0 S 24 35 13 19 1021.4 - 0.0
03/10:00pm 18.8 15.3 13.5 71 3.0 S 24 35 13 19 1021.5 - 0.0
03/09:30pm 18.7 14.7 13.0 69 3.2 S 26 41 14 22 1021.5 - 0.0
03/09:00pm 18.7 15.0 12.8 68 3.3 S 24 39 13 21 1021.6 1021.6 0.0
03/08:30pm 19.0 14.8 13.5 70 3.1 SSE 28 43 15 23 1021.4 - 0.0
03/08:00pm 19.2 14.7 13.8 71 3.1 SSE 30 48 16 26 1021.3 - 0.0
03/07:57pm 19.0 14.4 13.5 70 3.1 SSE 30 48 16 26 1021.3 - 0.0
03/07:30pm 18.8 14.0 12.9 68 3.3 SSE 30 44 16 24 1021.1 - 0.0
03/07:00pm 19.0 13.9 13.1 68 3.3 SSE 32 43 17 23 1020.8 - 0.0
03/06:37pm 19.1 14.8 13.3 69 3.3 S 28 48 15 26 1020.8 - 0.0
03/06:30pm 19.1 14.4 13.1 68 3.4 SSE 30 44 16 24 1020.7 - 0.0
03/06:19pm 19.1 14.4 13.3 69 3.3 SSE 30 48 16 26 1020.5 - 0.0
03/06:00pm 19.1 14.5 13.5 70 3.2 SSE 30 43 16 23 1020.3 1020.3 0.0
03/05:30pm 19.2 14.6 13.6 70 3.2 SSE 30 43 16 23 1019.9 - 0.0
03/05:00pm 19.3 14.8 13.9 71 3.1 SSE 30 44 16 24 1019.5 - 0.0
03/04:30pm 19.2 14.3 13.6 70 3.2 SSE 32 44 17 24 1019.0 - 0.0
03/04:00pm 19.2 14.2 13.4 69 3.3 SSE 32 44 17 24 1018.6 - 0.0
03/03:38pm 19.3 15.2 13.7 70 3.2 SSE 28 46 15 25 1018.6 - 0.0
03/03:30pm 19.4 14.9 13.8 70 3.2 SSE 30 41 16 22 1018.6 - 0.0
03/03:11pm 19.3 15.1 13.5 69 3.3 SSE 28 46 15 25 1018.6 - 0.0
03/03:00pm 19.4 16.0 13.8 70 3.2 S 24 39 13 21 1018.5 1018.5 0.0
03/02:30pm 19.2 14.9 13.2 68 3.4 S 28 41 15 22 1018.5 - 0.0
03/02:00pm 18.9 15.0 13.2 69 3.2 S 26 39 14 21 1018.7 - 0.0
03/01:30pm 18.7 15.1 13.2 70 3.1 S 24 37 13 20 1019.0 - 0.0
03/12:00pm 18.2 14.4 12.4 69 3.2 S 24 41 13 22 1019.7 1019.7 0.0
03/11:30am 17.1 12.6 11.4 69 3.1 S 26 33 14 18 1020.3 - 0.0
03/11:00am 16.7 12.0 10.7 67 3.2 S 26 37 14 20 1020.5 - 0.0
03/10:00am 16.6 12.3 10.6 67 3.2 S 24 39 13 21 1020.7 - 0.0
03/09:30am 16.8 12.5 10.6 67 3.3 S 24 41 13 22 1020.8 - 0.0
03/09:00am 16.1 11.5 9.5 65 3.4 S 24 39 13 21 1020.6 1020.6 0.0
03/08:30am 15.4 10.6 8.9 65 3.3 S 24 35 13 19 1020.7 - 0.0
03/08:00am 14.6 9.0 8.6 67 3.0 S 28 41 15 22 1020.3 - 0.0
03/07:30am 13.9 7.7 8.0 67 2.9 S 30 43 16 23 1020.0 - 0.0
03/07:00am 13.8 7.5 7.5 66 3.1 S 30 43 16 23 1019.6 - 0.0
03/06:32am 13.6 7.3 7.5 66 3.0 S 30 48 16 26 1019.5 - 0.0
03/06:30am 13.8 7.1 7.5 66 3.1 S 32 48 17 26 1019.4 - 0.0
03/06:20am 13.7 7.3 6.9 63 3.3 S 30 48 16 26 1019.3 - 0.0
03/06:00am 13.6 6.8 6.7 63 3.3 S 32 48 17 26 1019.0 1019.0 0.0
03/05:30am 13.4 7.0 7.0 65 3.1 SSW 30 44 16 24 1018.8 - 0.0
03/05:00am 13.5 7.6 7.3 66 3.0 SSW 28 44 15 24 1018.6 - 0.0
03/04:36am 13.6 7.6 7.2 65 3.1 SSW 28 46 15 25 1018.4 - 0.0
03/04:30am 13.5 7.1 7.1 65 3.1 SSW 30 46 16 25 1018.5 - 0.0
03/04:00am 13.8 7.5 7.2 64 3.2 SSW 30 43 16 23 1018.5 - 0.0
03/03:30am 14.0 7.1 6.3 60 3.7 SSW 32 48 17 26 1018.7 - 0.0
03/03:09am 14.0 7.8 6.3 60 3.7 SSW 28 46 15 25 1018.8 - 0.0
03/03:00am 14.3 7.9 6.9 61 3.6 SSW 30 44 16 24 1018.9 1018.9 0.0
03/02:30am 14.7 8.2 6.6 58 3.9 SSW 30 48 16 26 1019.0 - 0.0
03/02:29am 14.7 8.2 6.6 58 3.9 SSW 30 48 16 26 1019.1 - 0.0
03/02:00am 15.1 9.7 7.9 62 3.6 SSW 26 41 14 22 1019.4 - 0.0
03/01:30am 15.6 9.4 6.0 53 4.6 SSW 28 46 15 25 1019.7 - 0.0
03/01:22am 15.7 9.4 5.9 52 4.7 SSW 28 46 15 25 1019.7 - 0.0
03/01:00am 16.1 9.8 5.9 50 4.9 SSW 28 44 15 24 1019.8 - 0.0
03/12:30am 16.5 10.9 7.0 53 4.7 SSW 26 37 14 20 1019.8 - 0.0
03/12:00am 17.0 10.6 7.1 52 4.9 SSW 30 44 16 24 1019.9 1019.9 0.0
 
Date/Time
EST
Temp
°C
App
Temp
°C
Dew
Point
Rel
Hum
%
Delta-T
°C
Wind Press
QNH
hPa
Press
MSL
hPa
Rain
since 9 am
mm
Dir
 
Spd
km/h
Gust
km/h
Spd
kts
Gust
kts
02/11:30pm 17.1 10.5 6.2 48 5.3 SSW 30 43 16 23 1020.1 - 0.0
02/11:00pm 17.3 12.5 7.5 52 4.9 SSW 22 35 12 19 1020.5 - 0.0
02/10:30pm 17.7 12.1 7.1 50 5.3 SSW 26 39 14 21 1020.4 - 0.0
02/10:00pm 18.0 12.9 7.7 51 5.2 SSW 24 39 13 21 1020.3 - 0.0
02/09:30pm 18.2 12.7 7.5 49 5.4 SSW 26 37 14 20 1020.5 - 0.0
02/09:00pm 18.5 13.5 8.1 50 5.3 S 24 41 13 22 1020.4 1020.4 0.0
02/08:30pm 18.6 13.6 8.0 50 5.4 SSW 24 35 13 19 1020.2 - 0.0
02/08:00pm 18.7 13.2 7.4 47 5.7 SSW 26 39 14 21 1020.1 - 0.0
02/07:30pm 19.2 14.3 8.3 49 5.6 SSW 24 37 13 20 1019.7 - 0.0
02/07:00pm 19.4 13.7 6.9 44 6.3 S 26 37 14 20 1019.7 - 0.0
02/06:30pm 19.2 15.2 8.4 49 5.6 SSW 19 28 10 15 1019.3 - 0.0
02/06:00pm 19.2 15.0 7.4 46 6.0 SSW 19 28 10 15 1018.9 1018.9 0.0
02/05:30pm 19.2 15.1 7.9 48 5.8 SSW 19 28 10 15 1018.6 - 0.0
02/05:00pm 19.5 15.3 7.3 45 6.2 SSW 19 28 10 15 1018.5 - 0.0
02/03:30pm 20.4 15.1 6.7 41 6.9 SSW 24 39 13 21 1018.4 - 0.0
02/03:00pm 20.8 15.7 7.8 43 6.7 SSW 24 39 13 21 1018.4 1018.4 0.0
02/02:30pm 20.9 15.7 7.2 41 7.0 SSW 24 37 13 20 1018.5 - 0.0
02/02:00pm 20.8 16.2 8.1 44 6.6 SSW 22 37 12 20 1018.6 - 0.0
02/01:30pm 20.9 15.9 8.0 43 6.7 SSW 24 35 13 19 1018.7 - 0.0
02/01:00pm 20.5 15.2 8.4 45 6.3 SSW 26 35 14 19 1019.1 - 0.0
02/12:30pm 20.4 15.6 9.0 48 6.0 SSW 24 35 13 19 1019.8 - 0.0
02/12:00pm 20.1 15.5 9.5 50 5.6 SSW 24 35 13 19 1020.5 1020.5 0.0
02/11:30am 20.4 14.8 10.2 52 5.5 S 30 41 16 22 1021.0 - 0.0
02/11:00am 20.0 18.8 20.0 100 0.0 S 26 35 14 19 1021.5 - 0.0
02/10:30am 19.8 18.0 19.5 98 0.2 S 28 35 15 19 1021.9 - 0.0
02/10:00am 19.6 17.7 19.4 99 0.1 S 28 39 15 21 1022.2 - 0.0
02/09:30am 19.4 17.4 19.2 99 0.1 S 28 37 15 20 1022.1 - 0.0
02/09:00am 18.9 17.5 18.9 100 0.0 S 24 33 13 18 1022.1 1022.1 0.0
02/08:30am 18.6 16.6 18.4 99 0.1 S 26 35 14 19 1022.0 - 0.0
02/08:00am 18.2 16.5 18.2 100 0.0 S 24 35 13 19 1021.8 - 0.0
02/07:30am 17.8 15.5 17.6 99 0.1 SSW 26 37 14 20 1021.4 - 0.0
02/07:00am 17.8 15.1 17.6 99 0.1 S 28 39 15 21 1021.2 - 0.0
02/06:30am 17.8 15.6 17.8 100 0.0 S 26 35 14 19 1020.6 - 0.0
02/06:00am 17.9 15.7 17.9 100 0.0 S 26 37 14 20 1020.3 1020.3 0.0
02/05:30am 18.1 15.6 18.1 100 0.0 S 28 37 15 20 1020.1 - 0.0
02/05:00am 18.1 15.9 17.9 99 0.1 S 26 39 14 21 1020.0 - 0.0
02/04:30am 18.4 17.1 18.1 98 0.2 SSW 22 33 12 18 1020.1 - 0.0
02/04:00am 18.7 16.8 18.5 99 0.1 SSW 26 35 14 19 1020.1 - 0.0
02/03:30am 18.9 17.5 18.7 99 0.1 SSW 24 32 13 17 1020.0 - 0.0
02/03:00am 19.4 19.9 19.2 99 0.1 SSW 15 20 8 11 1020.2 1020.2 0.0
02/02:30am 19.6 19.8 19.4 99 0.1 SSW 17 26 9 14 1020.2 - 0.0
02/02:00am 20.2 21.9 20.2 100 0.0 S 11 17 6 9 1020.2 - 0.0
02/01:30am 20.2 22.3 20.2 100 0.0 S 9 15 5 8 1020.5 - 0.0
02/01:00am 20.2 21.9 20.2 100 0.0 S 11 13 6 7 1020.8 - 0.0
02/12:30am 20.8 22.7 20.6 99 0.1 SSE 11 15 6 8 1021.0 - 0.0
 
Date/Time
EST
Temp
°C
App
Temp
°C
Dew
Point
Rel
Hum
%
Delta-T
°C
Wind Press
QNH
hPa
Press
MSL
hPa
Rain
since 9 am
mm
Dir
 
Spd
km/h
Gust
km/h
Spd
kts
Gust
kts
01/11:30pm 20.6 22.8 20.4 99 0.1 SSE 9 13 5 7 1021.5 - 0.0
01/11:00pm 20.7 22.3 20.7 100 0.0 SE 13 19 7 10 1021.5 - 0.0
01/10:30pm 21.1 23.2 20.9 99 0.1 SSE 11 15 6 8 1021.9 - 0.0
01/10:00pm 21.0 23.0 20.8 99 0.1 SE 11 15 6 8 1022.0 - 0.0
01/09:30pm 21.1 22.9 21.1 100 0.0 ESE 13 17 7 9 1022.0 - 0.0
01/09:00pm 21.0 22.6 20.8 99 0.1 ESE 13 17 7 9 1022.0 1022.0 0.0
01/08:30pm 20.9 22.1 20.7 99 0.1 ESE 15 20 8 11 1021.8 - 0.0
01/08:00pm 20.7 21.4 20.5 99 0.1 ESE 17 20 9 11 1021.6 - 0.0
01/07:30pm 20.8 21.6 20.6 99 0.1 ESE 17 20 9 11 1021.4 - 0.0
01/06:00pm 20.8 21.9 20.5 98 0.2 SE 15 20 8 11 1020.8 1020.8 0.0
01/05:30pm 20.9 22.8 20.6 98 0.2 SSE 11 17 6 9 1020.6 - 0.0
01/05:00pm 21.2 22.9 21.0 99 0.1 SSE 13 19 7 10 1020.4 - 0.0
01/04:30pm 21.4 23.6 21.1 98 0.2 SSE 11 17 6 9 1020.2 - 0.0
01/04:00pm 21.7 23.7 21.5 99 0.1 SSE 13 20 7 11 1020.1 - 0.0
01/03:30pm 21.8 23.4 21.5 98 0.2 SSE 15 20 8 11 1020.3 - 0.0
01/03:00pm 22.1 23.9 21.8 98 0.2 S 15 24 8 13 1020.4 1020.4 0.0
01/02:30pm 22.2 24.1 22.0 99 0.1 S 15 20 8 11 1020.6 - 0.0
01/02:00pm 22.0 23.8 21.8 99 0.1 S 15 20 8 11 1020.7 - 0.0
01/01:30pm 22.4 24.5 22.4 100 0.0 S 15 20 8 11 1020.9 - 0.0
01/01:00pm 22.6 24.6 22.3 98 0.2 S 15 20 8 11 1021.3 - 0.0
01/12:30pm 22.2 23.7 22.0 99 0.1 S 17 24 9 13 1021.8 - 0.0
01/12:00pm 22.5 24.6 22.5 100 0.0 S 15 22 8 12 1022.5 1022.5 0.0
01/11:30am 22.5 24.1 22.2 98 0.2 S 17 24 9 13 1022.9 - 0.0
01/11:00am 22.3 23.8 22.0 98 0.2 S 17 24 9 13 1023.2 - 0.0
01/10:30am 22.3 23.5 22.1 99 0.1 S 19 26 10 14 1023.4 - 0.0
01/10:00am 21.7 22.9 21.5 99 0.1 S 17 26 9 14 1023.5 - 0.0

Other Formats:

Comma delimited format used in spreadsheet applications
http://www.bom.gov.au/fwo/IDQ60801/IDQ60801.94388.axf

JavaScript Object Notation format (JSON) in row-major order
http://www.bom.gov.au/fwo/IDQ60801/IDQ60801.94388.json